createdAt,value
2022-11-12T00:00:02.878Z,13.41
2022-11-12T00:03:11.711Z,13.34
2022-11-12T00:05:58.188Z,13.51
2022-11-12T00:08:45.069Z,13.59
2022-11-12T00:11:31.467Z,13.93
2022-11-12T00:14:18.170Z,13.71
2022-11-12T00:17:04.642Z,13.71
2022-11-12T00:19:51.598Z,13.72
2022-11-12T00:22:37.857Z,13.46
2022-11-12T00:25:25.029Z,13.43
2022-11-12T00:28:11.998Z,13.52
2022-11-12T00:30:58.827Z,13.44
2022-11-12T00:33:45.441Z,13.59
2022-11-12T00:36:32.278Z,13.48
2022-11-12T00:39:19.320Z,13.50
2022-11-12T00:42:06.249Z,13.63
2022-11-12T00:44:52.869Z,13.53
2022-11-12T00:47:40.650Z,13.42
2022-11-12T00:50:27.059Z,13.54
2022-11-12T00:53:14.252Z,13.48
2022-11-12T00:56:04.945Z,13.28
2022-11-12T00:58:51.978Z,13.40
2022-11-12T01:01:40.159Z,13.52
2022-11-12T01:04:27.018Z,13.39
2022-11-12T01:07:16.161Z,13.47
2022-11-12T01:10:03.811Z,13.23
2022-11-12T01:12:50.420Z,13.15
2022-11-12T01:15:42.446Z,13.03
2022-11-12T01:18:29.116Z,13.08
2022-11-12T01:21:16.377Z,13.08
2022-11-12T01:24:03.058Z,13.12
2022-11-12T01:26:50.007Z,13.11
2022-11-12T01:29:36.399Z,13.42
2022-11-12T01:32:23.154Z,12.84
2022-11-12T01:35:09.828Z,12.94
2022-11-12T01:37:56.679Z,12.70
2022-11-12T01:40:43.189Z,12.69
2022-11-12T01:43:29.998Z,12.84
2022-11-12T01:46:25.340Z,13.07
2022-11-12T01:49:18.280Z,13.17
2022-11-12T01:52:28.167Z,12.45
2022-11-12T01:55:22.543Z,12.52
2022-11-12T01:58:12.829Z,12.32
2022-11-12T02:01:03.755Z,12.02
2022-11-12T02:03:50.672Z,12.16
2022-11-12T02:06:40.407Z,11.93
2022-11-12T02:09:26.957Z,12.17
2022-11-12T02:12:34.018Z,12.47
2022-11-12T02:15:20.450Z,12.44
2022-11-12T02:18:07.697Z,12.52
2022-11-12T02:20:57.927Z,12.65
2022-11-12T02:23:44.807Z,12.55
2022-11-12T02:26:37.416Z,12.62
2022-11-12T02:29:25.357Z,12.55
2022-11-12T02:32:15.096Z,12.73
2022-11-12T02:35:01.826Z,12.70
2022-11-12T02:37:47.998Z,12.54
2022-11-12T02:40:35.078Z,12.44
2022-11-12T02:43:21.730Z,12.63
2022-11-12T02:46:09.596Z,12.45
2022-11-12T02:48:56.079Z,12.57
2022-11-12T02:51:43.167Z,12.59
2022-11-12T02:54:29.583Z,12.49
2022-11-12T02:57:16.276Z,12.54
2022-11-12T03:00:05.177Z,12.48
2022-11-12T03:03:01.600Z,12.30
2022-11-12T03:05:59.691Z,12.38
2022-11-12T03:08:46.702Z,12.46
2022-11-12T03:11:33.086Z,12.63
2022-11-12T03:14:20.019Z,12.70
2022-11-12T03:17:06.328Z,12.59
2022-11-12T03:19:52.982Z,12.44
2022-11-12T03:22:40.990Z,12.58
2022-11-12T03:25:29.298Z,12.89
2022-11-12T03:28:17.008Z,12.96
2022-11-12T03:31:03.757Z,12.92
2022-11-12T03:33:50.237Z,12.08
2022-11-12T03:36:37.038Z,12.33
2022-11-12T03:39:23.408Z,12.31
2022-11-12T03:42:10.180Z,12.54
2022-11-12T03:44:56.731Z,12.48
2022-11-12T03:47:46.978Z,12.37
2022-11-12T03:50:33.587Z,12.40
2022-11-12T03:53:20.153Z,12.22
2022-11-12T03:56:07.068Z,12.30
2022-11-12T03:58:54.627Z,12.14
2022-11-12T04:01:41.442Z,11.84
2022-11-12T04:04:48.151Z,11.83
2022-11-12T04:07:53.416Z,11.87
2022-11-12T04:10:40.368Z,12.02
2022-11-12T04:13:29.870Z,12.16
2022-11-12T04:16:40.517Z,12.25
2022-11-12T04:19:45.834Z,12.38
2022-11-12T04:22:32.884Z,12.08
2022-11-12T04:25:38.425Z,12.52
2022-11-12T04:28:26.562Z,12.60
2022-11-12T04:31:13.454Z,12.46
2022-11-12T04:34:20.879Z,11.52
2022-11-12T04:37:07.686Z,11.43
2022-11-12T04:39:54.329Z,11.41
2022-11-12T04:42:59.745Z,11.72
2022-11-12T04:45:49.358Z,11.75
2022-11-12T04:48:35.829Z,11.75
2022-11-12T04:51:40.904Z,11.73
2022-11-12T04:54:27.674Z,11.72
2022-11-12T04:57:14.255Z,11.80
2022-11-12T05:00:00.693Z,11.90
2022-11-12T05:02:50.584Z,11.86
2022-11-12T05:05:37.155Z,11.85
2022-11-12T05:08:25.270Z,12.12
2022-11-12T05:11:13.079Z,12.19
2022-11-12T05:14:00.226Z,12.25
2022-11-12T05:16:46.905Z,12.65
2022-11-12T05:19:35.239Z,12.31
2022-11-12T05:22:42.875Z,12.54
2022-11-12T05:25:28.465Z,12.70
2022-11-12T05:28:15.473Z,12.45
2022-11-12T05:31:02.384Z,12.57
2022-11-12T05:33:48.695Z,12.47
2022-11-12T05:36:35.825Z,12.31
2022-11-12T05:39:22.435Z,12.08
2022-11-12T05:42:14.298Z,12.31
2022-11-12T05:45:00.844Z,12.13
2022-11-12T05:47:48.346Z,12.09
2022-11-12T05:50:45.277Z,12.42
2022-11-12T05:53:43.388Z,12.56
2022-11-12T05:56:29.584Z,12.58
2022-11-12T05:59:16.296Z,12.14
2022-11-12T06:02:02.906Z,12.20
2022-11-12T06:04:49.720Z,12.19
2022-11-12T06:07:36.223Z,12.12
2022-11-12T06:10:23.164Z,12.07
2022-11-12T06:13:09.555Z,12.14
2022-11-12T06:15:56.705Z,12.30
2022-11-12T06:18:43.516Z,12.29
2022-11-12T06:21:31.135Z,12.38
2022-11-12T06:24:18.174Z,12.49
2022-11-12T06:27:06.087Z,12.67
2022-11-12T06:29:52.558Z,12.79
2022-11-12T06:32:39.323Z,12.58
2022-11-12T06:35:25.774Z,12.46
2022-11-12T06:38:12.602Z,12.40
2022-11-12T06:40:59.032Z,12.54
2022-11-12T06:43:45.694Z,12.67
2022-11-12T06:46:32.203Z,12.62
2022-11-12T06:49:18.833Z,12.27
2022-11-12T06:52:05.554Z,12.30
2022-11-12T06:54:53.306Z,11.90
2022-11-12T06:57:39.714Z,11.89
2022-11-12T07:00:26.605Z,11.80
2022-11-12T07:03:15.435Z,11.67
2022-11-12T07:06:12.564Z,11.87
2022-11-12T07:08:59.520Z,12.11
2022-11-12T07:11:46.342Z,12.03
2022-11-12T07:14:32.656Z,11.96
2022-11-12T07:17:19.728Z,11.74
2022-11-12T07:20:06.687Z,11.95
2022-11-12T07:22:54.106Z,12.20
2022-11-12T07:25:40.757Z,12.48
2022-11-12T07:28:27.936Z,12.84
2022-11-12T07:31:16.205Z,12.80
2022-11-12T07:34:04.104Z,12.97
2022-11-12T07:36:52.354Z,13.47
2022-11-12T07:39:39.024Z,13.56
2022-11-12T07:42:26.173Z,13.40
2022-11-12T07:45:12.976Z,13.42
2022-11-12T07:47:59.816Z,13.64
2022-11-12T07:50:46.744Z,13.70
2022-11-12T07:53:34.423Z,13.86
2022-11-12T07:56:24.245Z,14.06
2022-11-12T07:59:10.605Z,13.89
2022-11-12T08:01:57.500Z,14.05
2022-11-12T08:04:45.017Z,14.09
2022-11-12T08:07:32.069Z,14.29
2022-11-12T08:10:18.986Z,14.26
2022-11-12T08:13:06.887Z,14.39
2022-11-12T08:15:53.555Z,14.27
2022-11-12T08:18:40.122Z,14.38
2022-11-12T08:21:27.376Z,14.34
2022-11-12T08:24:14.166Z,14.62
2022-11-12T08:27:00.725Z,14.45
2022-11-12T08:29:47.625Z,14.03
2022-11-12T08:32:34.367Z,14.46
2022-11-12T08:35:21.045Z,14.73
2022-11-12T08:38:11.717Z,14.77
2022-11-12T08:41:08.436Z,14.52
2022-11-12T08:43:54.945Z,14.14
2022-11-12T08:46:41.976Z,14.49
2022-11-12T08:49:29.400Z,14.67
2022-11-12T08:52:16.090Z,14.78
2022-11-12T08:55:02.756Z,14.57
2022-11-12T08:57:49.447Z,15.00
2022-11-12T09:00:38.758Z,15.12
2022-11-12T09:03:26.537Z,15.10
2022-11-12T09:06:12.768Z,15.27
2022-11-12T09:09:00.017Z,14.98
2022-11-12T09:11:46.819Z,14.69
2022-11-12T09:14:33.881Z,14.62
2022-11-12T09:17:20.256Z,14.62
2022-11-12T09:20:07.470Z,14.70
2022-11-12T09:22:55.008Z,14.68
2022-11-12T09:25:44.112Z,14.64
2022-11-12T09:28:31.668Z,14.23
2022-11-12T09:31:18.428Z,14.52
2022-11-12T09:34:05.317Z,14.46
2022-11-12T09:36:52.207Z,15.07
2022-11-12T09:39:38.802Z,15.06
2022-11-12T09:42:25.832Z,15.43
2022-11-12T09:45:26.823Z,15.24
2022-11-12T09:48:20.902Z,15.44
2022-11-12T09:51:12.951Z,15.63
2022-11-12T09:54:28.633Z,16.16
2022-11-12T09:57:15.273Z,16.23
2022-11-12T10:00:03.752Z,16.55
2022-11-12T10:02:58.191Z,16.64
2022-11-12T10:06:02.533Z,16.71
2022-11-12T10:08:57.351Z,17.04
2022-11-12T10:12:27.697Z,17.37
2022-11-12T10:16:11.322Z,16.86
2022-11-12T10:19:21.013Z,16.98
2022-11-12T10:22:49.732Z,17.61
2022-11-12T10:25:38.602Z,17.33
2022-11-12T10:28:32.072Z,17.86
2022-11-12T10:31:23.947Z,18.37
2022-11-12T10:34:23.680Z,18.70
2022-11-12T10:37:22.824Z,18.94
2022-11-12T10:40:21.601Z,18.66
2022-11-12T10:43:17.643Z,18.70
2022-11-12T10:46:19.462Z,18.68
2022-11-12T10:49:24.279Z,18.81
2022-11-12T10:52:25.211Z,18.83
2022-11-12T10:55:20.644Z,18.59
2022-11-12T10:58:10.013Z,18.80
2022-11-12T11:01:07.674Z,18.76
2022-11-12T11:03:58.689Z,18.50
2022-11-12T11:06:45.884Z,18.28
2022-11-12T11:09:34.654Z,18.09
2022-11-12T11:12:32.773Z,18.02
2022-11-12T11:15:24.194Z,18.13
2022-11-12T11:18:14.868Z,18.00
2022-11-12T11:21:19.995Z,18.03
2022-11-12T11:24:15.762Z,17.59
2022-11-12T11:27:11.282Z,17.81
2022-11-12T11:30:19.027Z,17.98
2022-11-12T11:33:20.876Z,18.04
2022-11-12T11:36:22.670Z,18.06
2022-11-12T11:39:45.391Z,18.00
2022-11-12T11:43:04.381Z,18.18
2022-11-12T11:46:07.323Z,17.63
2022-11-12T11:49:03.161Z,17.91
2022-11-12T11:52:15.822Z,17.60
2022-11-12T11:55:15.875Z,17.68
2022-11-12T11:58:17.622Z,17.88
2022-11-12T12:01:08.303Z,17.97
2022-11-12T12:04:23.447Z,17.58
2022-11-12T12:07:12.897Z,17.79
2022-11-12T12:10:53.687Z,18.03
2022-11-12T12:13:58.242Z,17.94
2022-11-12T12:16:54.089Z,18.06
2022-11-12T12:20:06.563Z,17.98
2022-11-12T12:23:21.894Z,18.10
2022-11-12T12:26:19.301Z,18.09
2022-11-12T12:29:27.399Z,18.43
2022-11-12T12:32:19.319Z,18.56
2022-11-12T12:35:23.138Z,18.56
2022-11-12T12:38:24.095Z,18.66
2022-11-12T12:41:20.298Z,18.68
2022-11-12T12:44:10.759Z,18.74
2022-11-12T12:47:01.366Z,18.41
2022-11-12T12:49:51.825Z,18.63
2022-11-12T12:53:03.047Z,18.51
2022-11-12T12:55:52.647Z,18.55
2022-11-12T12:58:48.888Z,18.37
2022-11-12T13:01:37.239Z,18.53
2022-11-12T13:04:53.139Z,18.68
2022-11-12T13:07:51.618Z,18.71
2022-11-12T13:10:51.009Z,18.54
2022-11-12T13:13:39.459Z,18.56
2022-11-12T13:16:51.378Z,18.15
2022-11-12T13:19:54.963Z,18.53
2022-11-12T13:22:41.740Z,18.53
2022-11-12T13:25:32.169Z,18.70
2022-11-12T13:28:19.509Z,18.52
2022-11-12T13:31:26.739Z,18.47
2022-11-12T13:34:23.418Z,18.45
2022-11-12T13:37:21.649Z,18.34
2022-11-12T13:40:16.456Z,18.05
2022-11-12T13:43:21.338Z,18.03
2022-11-12T13:46:10.643Z,18.21
2022-11-12T13:49:19.540Z,18.06
2022-11-12T13:52:06.462Z,17.81
2022-11-12T13:55:22.758Z,17.81
2022-11-12T13:58:30.543Z,17.73
2022-11-12T14:01:23.076Z,17.69
2022-11-12T14:04:16.465Z,17.79
2022-11-12T14:07:13.620Z,17.68
2022-11-12T14:10:30.905Z,17.66
2022-11-12T14:14:05.895Z,17.62
2022-11-12T14:17:26.455Z,17.70
2022-11-12T14:20:31.388Z,17.63
2022-11-12T14:23:24.922Z,17.76
2022-11-12T14:26:14.275Z,17.66
2022-11-12T14:29:01.055Z,17.72
2022-11-12T14:31:47.926Z,17.69
2022-11-12T14:34:35.297Z,17.86
2022-11-12T14:37:39.838Z,17.90
2022-11-12T14:40:35.573Z,17.72
2022-11-12T14:43:27.320Z,17.72
2022-11-12T14:46:23.655Z,17.73
2022-11-12T14:49:28.477Z,17.60
2022-11-12T14:52:33.216Z,17.52
2022-11-12T14:55:25.507Z,17.63
2022-11-12T14:58:15.705Z,17.62
2022-11-12T15:02:13.919Z,17.43
2022-11-12T15:04:42.949Z,17.06
2022-11-12T15:07:35.701Z,17.12
2022-11-12T15:10:42.588Z,17.23
2022-11-12T15:13:40.567Z,17.02
2022-11-12T15:16:35.538Z,17.06
2022-11-12T15:19:29.081Z,17.11
2022-11-12T15:22:23.073Z,16.98
2022-11-12T15:25:13.397Z,16.94
2022-11-12T15:28:23.788Z,16.86
2022-11-12T15:31:20.832Z,16.81
2022-11-12T15:34:39.507Z,16.77
2022-11-12T15:37:31.711Z,16.75
2022-11-12T15:40:20.818Z,16.81
2022-11-12T15:43:21.868Z,16.79
2022-11-12T15:46:15.460Z,16.72
2022-11-12T15:49:02.301Z,16.60
2022-11-12T15:51:48.586Z,16.53
2022-11-12T15:54:40.825Z,16.67
2022-11-12T15:57:30.526Z,16.53
2022-11-12T16:00:22.851Z,16.45
2022-11-12T16:03:17.129Z,16.54
2022-11-12T16:06:08.580Z,16.31
2022-11-12T16:08:56.090Z,16.33
2022-11-12T16:11:44.210Z,16.39
2022-11-12T16:14:31.458Z,16.41
2022-11-12T16:17:18.934Z,16.44
2022-11-12T16:20:28.528Z,16.34
2022-11-12T16:23:16.116Z,16.32
2022-11-12T16:26:07.997Z,16.37
2022-11-12T16:28:55.893Z,16.48
2022-11-12T16:31:44.733Z,16.28
2022-11-12T16:34:32.213Z,16.13
2022-11-12T16:37:19.051Z,16.07
2022-11-12T16:40:12.882Z,16.11
2022-11-12T16:42:59.355Z,16.00
2022-11-12T16:45:46.485Z,16.06
2022-11-12T16:48:33.020Z,16.01
2022-11-12T16:51:21.936Z,15.98
2022-11-12T16:54:09.262Z,16.01
2022-11-12T16:56:57.096Z,16.03
2022-11-12T16:59:43.441Z,16.25
2022-11-12T17:02:30.372Z,15.95
2022-11-12T17:05:20.752Z,15.88
2022-11-12T17:08:11.163Z,16.10
2022-11-12T17:10:58.028Z,16.03
2022-11-12T17:13:45.061Z,15.94
2022-11-12T17:16:50.091Z,15.84
2022-11-12T17:19:38.477Z,15.86
2022-11-12T17:22:25.701Z,15.76
2022-11-12T17:25:13.661Z,15.71
2022-11-12T17:28:00.692Z,15.67
2022-11-12T17:30:47.597Z,15.60
2022-11-12T17:33:38.966Z,15.47
2022-11-12T17:36:27.993Z,15.31
2022-11-12T17:39:14.982Z,15.47
2022-11-12T17:42:01.833Z,15.47
2022-11-12T17:44:48.283Z,15.39
2022-11-12T17:47:40.136Z,15.40
2022-11-12T17:50:27.232Z,15.44
2022-11-12T17:53:14.788Z,15.34
2022-11-12T17:56:02.372Z,15.24
2022-11-12T17:58:51.361Z,15.23
2022-11-12T18:01:38.204Z,15.11
2022-11-12T18:04:30.598Z,15.26
2022-11-12T18:07:17.769Z,15.22
2022-11-12T18:10:05.292Z,15.27
2022-11-12T18:12:53.031Z,15.22
2022-11-12T18:15:39.756Z,15.13
2022-11-12T18:18:26.261Z,15.15
2022-11-12T18:21:15.212Z,15.21
2022-11-12T18:24:01.832Z,15.31
2022-11-12T18:26:49.801Z,15.30
2022-11-12T18:29:36.262Z,15.33
2022-11-12T18:32:23.383Z,15.41
2022-11-12T18:35:10.861Z,15.47
2022-11-12T18:37:57.896Z,15.58
2022-11-12T18:40:44.506Z,15.31
2022-11-12T18:43:31.531Z,15.26
2022-11-12T18:46:17.931Z,15.39
2022-11-12T18:49:04.753Z,15.31
2022-11-12T18:51:51.321Z,15.11
2022-11-12T18:54:38.268Z,15.15
2022-11-12T18:57:26.394Z,15.14
2022-11-12T19:00:14.395Z,15.07
2022-11-12T19:03:01.915Z,15.13
2022-11-12T19:05:48.706Z,15.14
2022-11-12T19:08:35.931Z,14.94
2022-11-12T19:11:23.067Z,15.19
2022-11-12T19:14:10.193Z,15.28
2022-11-12T19:16:57.725Z,15.08
2022-11-12T19:19:44.205Z,15.15
2022-11-12T19:22:32.012Z,15.27
2022-11-12T19:25:18.601Z,15.14
2022-11-12T19:28:05.527Z,15.18
2022-11-12T19:30:52.529Z,15.32
2022-11-12T19:33:40.782Z,14.97
2022-11-12T19:36:27.732Z,14.88
2022-11-12T19:39:15.612Z,15.02
2022-11-12T19:42:02.381Z,14.89
2022-11-12T19:44:49.942Z,14.72
2022-11-12T19:47:36.623Z,14.92
2022-11-12T19:50:25.062Z,15.21
2022-11-12T19:53:12.037Z,15.21
2022-11-12T19:56:03.698Z,14.95
2022-11-12T19:58:50.696Z,14.96
2022-11-12T20:01:37.681Z,15.22
2022-11-12T20:04:24.446Z,15.43
2022-11-12T20:07:11.614Z,15.20
2022-11-12T20:10:01.127Z,15.25
2022-11-12T20:12:49.353Z,15.17
2022-11-12T20:15:38.671Z,15.34
2022-11-12T20:18:26.773Z,15.33
2022-11-12T20:21:14.632Z,15.27
2022-11-12T20:24:02.206Z,15.50
2022-11-12T20:26:48.791Z,15.46
2022-11-12T20:29:35.581Z,15.59
2022-11-12T20:32:23.007Z,15.43
2022-11-12T20:35:19.354Z,15.33
2022-11-12T20:38:08.655Z,15.50
2022-11-12T20:41:00.351Z,15.28
2022-11-12T20:43:47.220Z,15.22
2022-11-12T20:46:34.131Z,15.21
2022-11-12T20:49:20.551Z,15.24
2022-11-12T20:52:08.550Z,15.23
2022-11-12T20:54:55.007Z,15.16
2022-11-12T20:57:43.027Z,15.20
2022-11-12T21:00:29.771Z,15.40
2022-11-12T21:03:17.863Z,15.37
2022-11-12T21:06:05.863Z,15.28
2022-11-12T21:08:53.150Z,15.15
2022-11-12T21:11:39.527Z,15.13
2022-11-12T21:14:27.317Z,15.10
2022-11-12T21:17:13.653Z,15.06
2022-11-12T21:20:01.990Z,15.14
2022-11-12T21:22:48.527Z,15.17
2022-11-12T21:25:36.726Z,15.25
2022-11-12T21:28:23.158Z,15.28
2022-11-12T21:31:21.503Z,15.01
2022-11-12T21:34:10.887Z,15.12
2022-11-12T21:36:58.652Z,15.16
2022-11-12T21:39:49.467Z,15.07
2022-11-12T21:42:36.356Z,15.03
2022-11-12T21:45:22.643Z,15.25
2022-11-12T21:48:09.543Z,15.20
2022-11-12T21:50:56.204Z,15.29
2022-11-12T21:53:45.542Z,15.22
2022-11-12T21:56:33.653Z,15.24
2022-11-12T21:59:20.393Z,15.37
2022-11-12T22:02:09.858Z,15.27
2022-11-12T22:04:56.533Z,15.18
2022-11-12T22:07:43.618Z,14.85
2022-11-12T22:10:31.669Z,14.97
2022-11-12T22:13:26.829Z,14.99
2022-11-12T22:16:25.498Z,15.03
2022-11-12T22:19:12.946Z,15.15
2022-11-12T22:21:59.698Z,14.97
2022-11-12T22:24:45.959Z,14.97
2022-11-12T22:27:34.346Z,15.11
2022-11-12T22:30:21.337Z,15.01
2022-11-12T22:33:08.127Z,14.85
2022-11-12T22:35:54.446Z,14.88
2022-11-12T22:38:44.065Z,14.97
2022-11-12T22:41:32.796Z,15.02
2022-11-12T22:44:19.393Z,14.80
2022-11-12T22:47:05.686Z,14.97
2022-11-12T22:49:53.847Z,14.97
2022-11-12T22:52:43.426Z,15.14
2022-11-12T22:55:32.901Z,15.07
2022-11-12T22:58:19.737Z,15.01
2022-11-12T23:01:11.862Z,14.86
2022-11-12T23:04:00.741Z,14.65
2022-11-12T23:06:47.648Z,14.70
2022-11-12T23:09:33.922Z,14.63
2022-11-12T23:12:20.671Z,14.84
2022-11-12T23:15:07.603Z,14.81
2022-11-12T23:17:55.712Z,14.99
2022-11-12T23:20:42.195Z,14.93
2022-11-12T23:23:30.111Z,14.90
2022-11-12T23:26:25.342Z,14.71
2022-11-12T23:29:13.534Z,14.73
2022-11-12T23:31:59.981Z,14.68
2022-11-12T23:34:46.844Z,14.74
2022-11-12T23:37:34.029Z,14.74
2022-11-12T23:40:21.000Z,14.80
2022-11-12T23:43:07.762Z,14.92
2022-11-12T23:45:54.930Z,14.76
2022-11-12T23:48:41.711Z,14.73
2022-11-12T23:51:29.588Z,14.76
2022-11-12T23:54:16.081Z,14.64
2022-11-12T23:57:04.371Z,14.76
2022-11-12T23:59:50.921Z,15.13
